Milton, Indiana
Current Conditions -  °F | °C
As of 4:39 AM on Thursday 23 Oct 2014 (Local Time) from KMIE Reporting Station
Moderate Fog Moderate Fog  
Wind Chill: 33°   Ceiling: 200
Heat Index: 33°   Visibility: 0.25mi
Dew Point: 32°   Wind: 0mph
Humidity: 96%   Direction: NA
Pressure: 30.26"   Gusts: NA
Location:  39.79°N, 85.16°W
Report Text: KMIE 230839Z AUTO 00000KT 1/4SM FG VV002 01/00 A3026 RMK AO2 I1000 T00060000
Loading
Personal Weather Stations






























Interactive Weather Map
Tropical Storm Tracking
New forecast layout! Learn more

10-Day Weather Forecast

Advertisements
Track Severe Weather on mobile